createdAt,value
2019-03-03T00:00:55.163Z,25.70
2019-03-03T00:03:50.606Z,25.80
2019-03-03T00:06:46.143Z,25.80
2019-03-03T00:09:41.793Z,25.70
2019-03-03T00:12:37.501Z,25.70
2019-03-03T00:15:33.505Z,25.70
2019-03-03T00:18:29.398Z,25.70
2019-03-03T00:21:38.520Z,25.70
2019-03-03T00:24:34.083Z,25.70
2019-03-03T00:27:29.555Z,25.60
2019-03-03T00:30:25.267Z,25.70
2019-03-03T00:33:21.044Z,25.70
2019-03-03T00:36:16.506Z,25.60
2019-03-03T00:39:20.339Z,25.60
2019-03-03T00:42:38.450Z,25.60
2019-03-03T00:45:47.501Z,25.60
2019-03-03T00:49:01.014Z,25.70
2019-03-03T00:52:06.598Z,25.70
2019-03-03T00:55:20.879Z,25.70
2019-03-03T00:58:31.828Z,25.70
2019-03-03T01:01:40.336Z,25.80
2019-03-03T01:05:04.088Z,25.80
2019-03-03T01:08:31.071Z,25.70
2019-03-03T01:11:44.200Z,25.70
2019-03-03T01:15:02.517Z,25.70
2019-03-03T01:18:16.906Z,25.70
2019-03-03T01:21:29.701Z,25.70
2019-03-03T01:24:46.420Z,25.70
2019-03-03T01:27:43.445Z,25.70
2019-03-03T01:30:40.047Z,25.60
2019-03-03T01:33:36.979Z,25.70
2019-03-03T01:36:33.621Z,25.60
2019-03-03T01:39:29.861Z,25.60
2019-03-03T01:42:26.728Z,25.50
2019-03-03T01:45:23.304Z,25.50
2019-03-03T01:48:20.023Z,25.50
2019-03-03T01:51:17.311Z,25.40
2019-03-03T01:54:13.900Z,25.40
2019-03-03T01:57:10.960Z,25.20
2019-03-03T02:00:08.196Z,25.10
2019-03-03T02:03:05.069Z,25.00
2019-03-03T02:06:01.725Z,24.90
2019-03-03T02:08:58.667Z,24.70
2019-03-03T02:11:55.825Z,24.70
2019-03-03T02:14:52.568Z,24.60
2019-03-03T02:17:49.538Z,24.50
2019-03-03T02:20:46.086Z,24.50
2019-03-03T02:23:42.897Z,24.50
2019-03-03T02:26:40.361Z,24.50
2019-03-03T02:29:49.486Z,24.50
2019-03-03T02:32:46.555Z,24.60
2019-03-03T02:35:43.859Z,24.60
2019-03-03T02:38:40.866Z,24.60
2019-03-03T02:41:38.044Z,24.70
2019-03-03T02:44:34.774Z,24.70
2019-03-03T02:47:31.339Z,24.70
2019-03-03T02:50:28.211Z,24.70
2019-03-03T02:53:24.559Z,24.70
2019-03-03T02:56:21.370Z,24.70
2019-03-03T02:59:18.471Z,24.60
2019-03-03T03:02:30.939Z,24.50
2019-03-03T03:05:45.288Z,24.50
2019-03-03T03:08:59.639Z,24.50
2019-03-03T03:12:22.261Z,24.50
2019-03-03T03:15:30.819Z,24.60
2019-03-03T03:18:45.966Z,24.60
2019-03-03T03:22:03.082Z,24.70
2019-03-03T03:25:20.822Z,24.80
2019-03-03T03:28:42.467Z,24.80
2019-03-03T03:32:06.143Z,24.90
2019-03-03T03:35:29.831Z,24.90
2019-03-03T03:38:37.825Z,25.00
2019-03-03T03:41:51.978Z,25.00
2019-03-03T03:45:03.533Z,25.10
2019-03-03T03:48:21.555Z,25.10
2019-03-03T03:51:48.127Z,25.20
2019-03-03T03:55:20.945Z,25.20
2019-03-03T03:58:31.187Z,25.30
2019-03-03T04:01:48.428Z,25.30
2019-03-03T04:05:05.110Z,25.20
2019-03-03T04:08:19.292Z,25.20
2019-03-03T04:11:32.408Z,25.10
2019-03-03T04:14:49.097Z,25.00
2019-03-03T04:18:06.819Z,24.90
2019-03-03T04:21:08.738Z,24.90
2019-03-03T04:24:18.462Z,24.80
2019-03-03T04:27:47.255Z,24.70
2019-03-03T04:31:19.027Z,24.70
2019-03-03T04:34:48.123Z,24.70
2019-03-03T04:38:00.228Z,24.70
2019-03-03T04:41:04.595Z,24.60
2019-03-03T04:44:05.037Z,24.60
2019-03-03T04:47:15.204Z,24.60
2019-03-03T04:50:32.360Z,24.50
2019-03-03T04:53:47.319Z,24.50
2019-03-03T04:56:57.899Z,24.40
2019-03-03T05:00:09.738Z,24.40
2019-03-03T05:03:28.967Z,24.30
2019-03-03T05:06:38.740Z,24.30
2019-03-03T05:09:46.551Z,24.20
2019-03-03T05:13:09.989Z,24.20
2019-03-03T05:16:21.590Z,24.20
2019-03-03T05:19:24.161Z,24.30
2019-03-03T05:22:19.595Z,24.20
2019-03-03T05:25:15.645Z,24.30
2019-03-03T05:28:10.880Z,24.30
2019-03-03T05:31:06.563Z,24.30
2019-03-03T05:34:02.055Z,24.20
2019-03-03T05:36:57.803Z,24.20
2019-03-03T05:39:53.464Z,24.30
2019-03-03T05:42:49.209Z,24.30
2019-03-03T05:45:44.620Z,24.30
2019-03-03T05:48:40.463Z,24.30
2019-03-03T05:51:36.105Z,24.30
2019-03-03T05:54:32.047Z,24.40
2019-03-03T05:57:27.462Z,24.40
2019-03-03T06:00:23.012Z,24.40
2019-03-03T06:03:18.932Z,24.40
2019-03-03T06:06:15.229Z,24.40
2019-03-03T06:09:11.953Z,24.50
2019-03-03T06:12:08.105Z,24.50
2019-03-03T06:15:03.759Z,24.50
2019-03-03T06:17:59.166Z,24.50
2019-03-03T06:20:54.601Z,24.50
2019-03-03T06:23:50.075Z,24.60
2019-03-03T06:26:46.033Z,24.60
2019-03-03T06:29:41.343Z,24.70
2019-03-03T06:32:37.176Z,24.80
2019-03-03T06:35:32.894Z,24.80
2019-03-03T06:38:28.724Z,24.90
2019-03-03T06:41:24.747Z,25.00
2019-03-03T06:44:20.475Z,25.10
2019-03-03T06:47:16.363Z,25.20
2019-03-03T06:50:15.277Z,25.20
2019-03-03T06:53:12.647Z,25.30
2019-03-03T06:56:09.296Z,25.30
2019-03-03T06:59:04.306Z,25.40
2019-03-03T07:01:59.475Z,25.50
2019-03-03T07:04:55.431Z,25.60
2019-03-03T07:07:51.936Z,25.60
2019-03-03T07:10:47.879Z,25.70
2019-03-03T07:13:43.779Z,25.80
2019-03-03T07:16:39.156Z,25.80
2019-03-03T07:19:33.983Z,25.90
2019-03-03T07:22:29.060Z,26.00
2019-03-03T07:25:24.781Z,26.20
2019-03-03T07:28:20.008Z,26.20
2019-03-03T07:31:15.786Z,26.30
2019-03-03T07:34:11.506Z,26.40
2019-03-03T07:37:06.669Z,26.40
2019-03-03T07:40:01.745Z,26.50
2019-03-03T07:42:57.787Z,26.60
2019-03-03T07:45:58.206Z,26.80
2019-03-03T07:48:52.997Z,27.00
2019-03-03T07:51:48.052Z,27.10
2019-03-03T07:54:43.051Z,27.30
2019-03-03T07:57:38.360Z,27.40
2019-03-03T08:00:33.708Z,27.50
2019-03-03T08:03:29.025Z,27.60
2019-03-03T08:06:24.055Z,27.70
2019-03-03T08:09:20.144Z,27.80
2019-03-03T08:12:15.172Z,27.90
2019-03-03T08:15:10.450Z,27.90
2019-03-03T08:18:06.668Z,28.00
2019-03-03T08:21:02.382Z,28.00
2019-03-03T08:23:57.462Z,28.10
2019-03-03T08:26:52.864Z,28.10
2019-03-03T08:29:47.846Z,28.20
2019-03-03T08:32:43.043Z,28.40
2019-03-03T08:35:38.306Z,28.50
2019-03-03T08:38:33.525Z,28.60
2019-03-03T08:41:29.091Z,28.70
2019-03-03T08:44:40.885Z,28.80
2019-03-03T08:47:42.648Z,28.90
2019-03-03T08:50:58.084Z,29.10
2019-03-03T08:54:23.566Z,29.20
2019-03-03T08:57:37.299Z,29.30
2019-03-03T09:00:51.220Z,29.40
2019-03-03T09:04:07.017Z,29.50
2019-03-03T09:07:22.395Z,29.60
2019-03-03T09:10:27.218Z,29.70
2019-03-03T09:13:38.321Z,29.90
2019-03-03T09:16:49.799Z,30.00
2019-03-03T09:20:14.029Z,30.10
2019-03-03T09:23:29.225Z,30.20
2019-03-03T09:26:57.992Z,30.30
2019-03-03T09:30:14.541Z,30.50
2019-03-03T09:33:27.805Z,30.60
2019-03-03T09:36:45.317Z,30.70
2019-03-03T09:39:58.241Z,30.80
2019-03-03T09:43:20.388Z,30.80
2019-03-03T09:46:25.716Z,31.00
2019-03-03T09:49:42.950Z,31.10
2019-03-03T09:53:02.127Z,31.30
2019-03-03T09:56:21.160Z,31.60
2019-03-03T09:59:34.601Z,32.00
2019-03-03T10:02:37.204Z,32.50
2019-03-03T10:05:50.503Z,32.90
2019-03-03T10:09:06.439Z,33.40
2019-03-03T10:12:08.841Z,33.80
2019-03-03T10:15:40.067Z,34.00
2019-03-03T10:18:51.432Z,34.20
2019-03-03T10:22:00.887Z,34.20
2019-03-03T10:25:14.365Z,34.20
2019-03-03T10:28:19.144Z,34.10
2019-03-03T10:31:31.698Z,34.00
2019-03-03T10:34:51.043Z,33.90
2019-03-03T10:37:55.456Z,33.80
2019-03-03T10:41:00.829Z,33.60
2019-03-03T10:44:13.589Z,33.50
2019-03-03T10:47:25.109Z,33.30
2019-03-03T10:50:38.098Z,33.20
2019-03-03T10:53:51.887Z,33.10
2019-03-03T10:57:10.990Z,33.00
2019-03-03T11:00:21.656Z,32.90
2019-03-03T11:03:37.531Z,32.80
2019-03-03T11:06:43.199Z,32.60
2019-03-03T11:09:54.747Z,32.50
2019-03-03T11:12:56.820Z,32.40
2019-03-03T11:16:05.764Z,32.20
2019-03-03T11:19:20.140Z,32.10
2019-03-03T11:22:33.020Z,32.00
2019-03-03T11:25:44.621Z,31.90
2019-03-03T11:28:57.180Z,31.90
2019-03-03T11:32:13.789Z,31.80
2019-03-03T11:35:32.342Z,31.70
2019-03-03T11:38:49.433Z,31.70
2019-03-03T11:42:01.873Z,31.60
2019-03-03T11:45:14.958Z,31.60
2019-03-03T11:48:19.821Z,31.50
2019-03-03T11:51:31.943Z,31.40
2019-03-03T11:54:56.926Z,31.40
2019-03-03T11:58:08.229Z,31.30
2019-03-03T12:01:20.800Z,31.30
2019-03-03T12:04:43.801Z,31.20
2019-03-03T12:07:53.317Z,31.10
2019-03-03T12:11:05.042Z,31.00
2019-03-03T12:14:16.954Z,31.00
2019-03-03T12:17:35.889Z,30.90
2019-03-03T12:20:48.662Z,30.70
2019-03-03T12:24:02.017Z,30.60
2019-03-03T12:27:14.475Z,30.50
2019-03-03T12:30:30.362Z,30.40
2019-03-03T12:33:34.328Z,30.30
2019-03-03T12:36:43.292Z,30.20
2019-03-03T12:39:54.448Z,30.00
2019-03-03T12:43:07.481Z,29.90
2019-03-03T12:46:14.582Z,29.80
2019-03-03T12:49:37.964Z,29.80
2019-03-03T12:52:56.929Z,29.60
2019-03-03T12:56:07.810Z,29.60
2019-03-03T12:59:30.088Z,29.40
2019-03-03T13:02:48.733Z,29.40
2019-03-03T13:06:01.135Z,29.30
2019-03-03T13:09:12.498Z,29.20
2019-03-03T13:12:35.234Z,29.10
2019-03-03T13:15:46.227Z,29.10
2019-03-03T13:18:57.773Z,29.10
2019-03-03T13:22:06.637Z,29.00
2019-03-03T13:25:22.265Z,28.90
2019-03-03T13:28:50.227Z,28.90
2019-03-03T13:32:02.110Z,28.80
2019-03-03T13:35:08.683Z,28.70
2019-03-03T13:38:15.657Z,28.70
2019-03-03T13:41:25.563Z,28.60
2019-03-03T13:44:20.476Z,28.60
2019-03-03T13:47:14.949Z,28.60
2019-03-03T13:50:11.011Z,28.60
2019-03-03T13:53:05.494Z,28.50
2019-03-03T13:56:00.272Z,28.50
2019-03-03T13:58:55.230Z,28.40
2019-03-03T14:01:50.224Z,28.40
2019-03-03T14:04:46.163Z,28.40
2019-03-03T14:07:41.596Z,28.30
2019-03-03T14:10:37.450Z,28.30
2019-03-03T14:13:32.759Z,28.30
2019-03-03T14:16:27.546Z,28.30
2019-03-03T14:19:22.630Z,28.20
2019-03-03T14:22:18.163Z,28.20
2019-03-03T14:25:13.115Z,28.20
2019-03-03T14:28:08.546Z,28.10
2019-03-03T14:31:03.561Z,28.10
2019-03-03T14:33:59.824Z,28.10
2019-03-03T14:36:55.977Z,28.10
2019-03-03T14:39:51.987Z,28.10
2019-03-03T14:42:47.337Z,28.00
2019-03-03T14:45:42.134Z,28.00
2019-03-03T14:48:37.204Z,27.90
2019-03-03T14:51:33.135Z,27.90
2019-03-03T14:54:28.098Z,27.90
2019-03-03T14:57:23.575Z,27.90
2019-03-03T15:00:30.656Z,27.80
2019-03-03T15:03:26.704Z,27.80
2019-03-03T15:06:24.609Z,27.70
2019-03-03T15:09:29.500Z,27.70
2019-03-03T15:12:25.149Z,27.70
2019-03-03T15:15:20.407Z,27.70
2019-03-03T15:18:16.655Z,27.70
2019-03-03T15:21:11.432Z,27.70
2019-03-03T15:24:07.031Z,27.70
2019-03-03T15:27:02.211Z,27.70
2019-03-03T15:29:57.802Z,27.70
2019-03-03T15:32:52.997Z,27.70
2019-03-03T15:35:48.781Z,27.60
2019-03-03T15:38:43.718Z,27.60
2019-03-03T15:41:38.635Z,27.60
2019-03-03T15:44:34.042Z,27.60
2019-03-03T15:47:28.942Z,27.50
2019-03-03T15:50:24.177Z,27.50
2019-03-03T15:53:19.449Z,27.50
2019-03-03T15:56:15.229Z,27.50
2019-03-03T15:59:10.422Z,27.40
2019-03-03T16:02:07.464Z,27.40
2019-03-03T16:05:02.046Z,27.40
2019-03-03T16:07:58.031Z,27.40
2019-03-03T16:10:53.772Z,27.40
2019-03-03T16:13:49.095Z,27.40
2019-03-03T16:16:43.932Z,27.40
2019-03-03T16:19:38.682Z,27.40
2019-03-03T16:22:34.110Z,27.40
2019-03-03T16:25:29.073Z,27.30
2019-03-03T16:28:24.441Z,27.30
2019-03-03T16:31:19.599Z,27.30
2019-03-03T16:34:15.059Z,27.30
2019-03-03T16:37:10.472Z,27.30
2019-03-03T16:40:05.286Z,27.20
2019-03-03T16:43:00.537Z,27.20
2019-03-03T16:45:55.795Z,27.20
2019-03-03T16:48:51.119Z,27.20
2019-03-03T16:51:46.284Z,27.10
2019-03-03T16:54:40.973Z,27.10
2019-03-03T16:57:37.135Z,27.10
2019-03-03T17:00:32.169Z,27.10
2019-03-03T17:03:27.428Z,27.10
2019-03-03T17:06:22.585Z,27.10
2019-03-03T17:09:17.819Z,27.10
2019-03-03T17:12:12.959Z,27.00
2019-03-03T17:15:08.324Z,27.00
2019-03-03T17:18:03.428Z,27.00
2019-03-03T17:20:58.289Z,27.00
2019-03-03T17:23:53.456Z,27.00
2019-03-03T17:26:48.191Z,27.00
2019-03-03T17:29:44.809Z,27.00
2019-03-03T17:32:39.797Z,27.00
2019-03-03T17:35:36.403Z,27.00
2019-03-03T17:38:31.299Z,26.90
2019-03-03T17:41:26.834Z,26.90
2019-03-03T17:44:21.669Z,26.90
2019-03-03T17:47:16.319Z,26.90
2019-03-03T17:50:15.194Z,26.80
2019-03-03T17:53:10.243Z,26.80
2019-03-03T17:56:05.280Z,26.80
2019-03-03T17:59:00.275Z,26.80
2019-03-03T18:01:56.218Z,26.80
2019-03-03T18:04:50.891Z,26.80
2019-03-03T18:07:46.006Z,26.70
2019-03-03T18:10:41.377Z,26.70
2019-03-03T18:13:36.377Z,26.70
2019-03-03T18:16:31.344Z,26.70
2019-03-03T18:19:26.225Z,26.70
2019-03-03T18:22:20.865Z,26.70
2019-03-03T18:25:17.043Z,26.70
2019-03-03T18:28:12.305Z,26.70
2019-03-03T18:31:06.845Z,26.70
2019-03-03T18:34:02.063Z,26.60
2019-03-03T18:36:57.031Z,26.60
2019-03-03T18:39:52.053Z,26.60
2019-03-03T18:42:46.705Z,26.60
2019-03-03T18:45:42.139Z,26.60
2019-03-03T18:48:37.267Z,26.50
2019-03-03T18:51:35.319Z,26.50
2019-03-03T18:54:31.103Z,26.50
2019-03-03T18:57:26.101Z,26.50
2019-03-03T19:00:23.760Z,26.40
2019-03-03T19:03:18.900Z,26.50
2019-03-03T19:06:13.803Z,26.40
2019-03-03T19:09:10.547Z,26.40
2019-03-03T19:12:05.775Z,26.40
2019-03-03T19:15:00.461Z,26.40
2019-03-03T19:17:55.906Z,26.40
2019-03-03T19:20:50.966Z,26.40
2019-03-03T19:23:46.408Z,26.40
2019-03-03T19:26:41.065Z,26.40
2019-03-03T19:29:35.936Z,26.30
2019-03-03T19:32:31.275Z,26.30
2019-03-03T19:35:26.181Z,26.30
2019-03-03T19:38:21.459Z,26.30
2019-03-03T19:41:16.932Z,26.30
2019-03-03T19:44:12.801Z,26.20
2019-03-03T19:47:08.451Z,26.20
2019-03-03T19:50:03.612Z,26.20
2019-03-03T19:52:59.778Z,26.20
2019-03-03T19:55:55.265Z,26.20
2019-03-03T19:58:50.847Z,26.10
2019-03-03T20:01:46.801Z,26.10
2019-03-03T20:04:42.382Z,26.10
2019-03-03T20:07:38.008Z,26.10
2019-03-03T20:10:33.847Z,26.10
2019-03-03T20:13:29.718Z,26.10
2019-03-03T20:16:24.772Z,26.10
2019-03-03T20:19:20.149Z,26.00
2019-03-03T20:22:15.731Z,26.10
2019-03-03T20:25:11.883Z,26.10
2019-03-03T20:28:07.085Z,26.10
2019-03-03T20:31:02.944Z,26.00
2019-03-03T20:33:59.067Z,26.00
2019-03-03T20:36:54.515Z,26.00
2019-03-03T20:39:50.180Z,26.00
2019-03-03T20:42:45.968Z,26.00
2019-03-03T20:45:41.405Z,26.00
2019-03-03T20:48:36.990Z,26.00
2019-03-03T20:51:32.282Z,26.00
2019-03-03T20:54:27.912Z,26.00
2019-03-03T20:57:23.199Z,25.90
2019-03-03T21:00:20.876Z,25.90
2019-03-03T21:03:16.544Z,25.90
2019-03-03T21:06:11.839Z,25.90
2019-03-03T21:09:08.171Z,25.90
2019-03-03T21:12:04.724Z,25.90
2019-03-03T21:15:00.298Z,25.80
2019-03-03T21:17:55.510Z,25.80
2019-03-03T21:20:50.806Z,25.80
2019-03-03T21:23:46.211Z,25.80
2019-03-03T21:26:42.504Z,25.80
2019-03-03T21:29:38.036Z,25.80
2019-03-03T21:32:33.646Z,25.80
2019-03-03T21:35:29.552Z,25.80
2019-03-03T21:38:25.694Z,25.70
2019-03-03T21:41:21.949Z,25.80
2019-03-03T21:44:17.208Z,25.70
2019-03-03T21:47:13.117Z,25.70
2019-03-03T21:50:09.202Z,25.70
2019-03-03T21:53:04.525Z,25.70
2019-03-03T21:56:00.152Z,25.60
2019-03-03T21:58:55.995Z,25.60
2019-03-03T22:01:51.754Z,25.60
2019-03-03T22:04:46.877Z,25.60
2019-03-03T22:07:42.536Z,25.60
2019-03-03T22:10:37.874Z,25.60
2019-03-03T22:13:33.714Z,25.60
2019-03-03T22:16:29.195Z,25.60
2019-03-03T22:19:24.664Z,25.60
2019-03-03T22:22:20.511Z,25.60
2019-03-03T22:25:16.875Z,25.60
2019-03-03T22:28:12.222Z,25.60
2019-03-03T22:31:07.343Z,25.60
2019-03-03T22:34:02.781Z,25.60
2019-03-03T22:36:58.601Z,25.60
2019-03-03T22:39:54.497Z,25.50
2019-03-03T22:42:50.188Z,25.50
2019-03-03T22:45:45.996Z,25.40
2019-03-03T22:48:42.048Z,25.40
2019-03-03T22:51:37.879Z,25.40
2019-03-03T22:54:33.100Z,25.40
2019-03-03T22:57:28.517Z,25.30
2019-03-03T23:00:47.151Z,25.30
2019-03-03T23:03:58.051Z,25.30
2019-03-03T23:07:09.034Z,25.30
2019-03-03T23:10:49.359Z,25.30
2019-03-03T23:13:53.277Z,25.20
2019-03-03T23:17:14.288Z,25.20
2019-03-03T23:20:16.581Z,25.20
2019-03-03T23:23:56.934Z,25.20
2019-03-03T23:26:52.642Z,25.20
2019-03-03T23:29:47.928Z,25.20
2019-03-03T23:32:43.356Z,25.20
2019-03-03T23:35:38.968Z,25.20
2019-03-03T23:38:34.479Z,25.20
2019-03-03T23:41:30.739Z,25.20
2019-03-03T23:44:26.678Z,25.10
2019-03-03T23:47:22.783Z,25.10
2019-03-03T23:50:18.164Z,25.10
2019-03-03T23:53:13.250Z,25.10
2019-03-03T23:56:08.176Z,25.10
2019-03-03T23:59:04.000Z,25.00
